sensor_id;sensor_type;location;lat;lon;timestamp;P1;durP1;ratioP1;P2;durP2;ratioP2
71655;SDS011;59497;48.798;8.816;2023-12-22T00:01:17;4.77;;;0.80;;
71655;SDS011;59497;48.798;8.816;2023-12-22T00:03:42;2.63;;;1.03;;
71655;SDS011;59497;48.798;8.816;2023-12-22T00:06:08;3.47;;;0.77;;
71655;SDS011;59497;48.798;8.816;2023-12-22T00:08:33;3.60;;;0.80;;
71655;SDS011;59497;48.798;8.816;2023-12-22T00:10:58;2.83;;;0.60;;
71655;SDS011;59497;48.798;8.816;2023-12-22T00:13:24;3.00;;;0.77;;
71655;SDS011;59497;48.798;8.816;2023-12-22T00:15:49;5.53;;;0.83;;
71655;SDS011;59497;48.798;8.816;2023-12-22T00:18:14;1.93;;;0.60;;
71655;SDS011;59497;48.798;8.816;2023-12-22T00:20:39;4.43;;;0.60;;
71655;SDS011;59497;48.798;8.816;2023-12-22T00:23:05;4.97;;;0.77;;
71655;SDS011;59497;48.798;8.816;2023-12-22T00:25:30;5.77;;;0.90;;
71655;SDS011;59497;48.798;8.816;2023-12-22T00:27:55;5.03;;;1.20;;
71655;SDS011;59497;48.798;8.816;2023-12-22T00:30:21;4.27;;;0.90;;
71655;SDS011;59497;48.798;8.816;2023-12-22T00:32:46;4.47;;;0.93;;
71655;SDS011;59497;48.798;8.816;2023-12-22T00:35:11;3.77;;;0.50;;
71655;SDS011;59497;48.798;8.816;2023-12-22T00:37:36;1.97;;;0.90;;
71655;SDS011;59497;48.798;8.816;2023-12-22T00:40:02;1.30;;;0.40;;
71655;SDS011;59497;48.798;8.816;2023-12-22T00:42:30;3.53;;;0.60;;
71655;SDS011;59497;48.798;8.816;2023-12-22T00:44:55;2.87;;;0.70;;
71655;SDS011;59497;48.798;8.816;2023-12-22T00:47:20;1.63;;;0.77;;
71655;SDS011;59497;48.798;8.816;2023-12-22T00:49:46;4.20;;;0.60;;
71655;SDS011;59497;48.798;8.816;2023-12-22T00:52:11;2.87;;;0.53;;
71655;SDS011;59497;48.798;8.816;2023-12-22T00:54:36;4.43;;;0.60;;
71655;SDS011;59497;48.798;8.816;2023-12-22T00:57:01;3.47;;;0.70;;
71655;SDS011;59497;48.798;8.816;2023-12-22T00:59:26;3.60;;;0.43;;
71655;SDS011;59497;48.798;8.816;2023-12-22T01:01:52;3.20;;;0.97;;
71655;SDS011;59497;48.798;8.816;2023-12-22T01:04:17;6.30;;;1.37;;
71655;SDS011;59497;48.798;8.816;2023-12-22T01:06:42;2.67;;;0.68;;
71655;SDS011;59497;48.798;8.816;2023-12-22T01:09:08;1.70;;;0.70;;
71655;SDS011;59497;48.798;8.816;2023-12-22T01:11:33;2.27;;;0.37;;
71655;SDS011;59497;48.798;8.816;2023-12-22T01:13:58;3.93;;;0.40;;
71655;SDS011;59497;48.798;8.816;2023-12-22T01:16:23;5.30;;;0.60;;
71655;SDS011;59497;48.798;8.816;2023-12-22T01:18:49;1.20;;;0.60;;
71655;SDS011;59497;48.798;8.816;2023-12-22T01:21:15;1.17;;;0.30;;
71655;SDS011;59497;48.798;8.816;2023-12-22T01:23:40;1.30;;;0.50;;
71655;SDS011;59497;48.798;8.816;2023-12-22T01:26:05;1.77;;;0.40;;
71655;SDS011;59497;48.798;8.816;2023-12-22T01:28:31;1.67;;;0.40;;
71655;SDS011;59497;48.798;8.816;2023-12-22T01:30:56;1.17;;;0.40;;
71655;SDS011;59497;48.798;8.816;2023-12-22T01:33:21;1.13;;;0.30;;
71655;SDS011;59497;48.798;8.816;2023-12-22T01:35:46;3.43;;;0.77;;
71655;SDS011;59497;48.798;8.816;2023-12-22T01:38:11;2.60;;;0.30;;
71655;SDS011;59497;48.798;8.816;2023-12-22T01:40:37;1.10;;;0.17;;
71655;SDS011;59497;48.798;8.816;2023-12-22T01:43:03;2.30;;;0.40;;
71655;SDS011;59497;48.798;8.816;2023-12-22T01:45:28;0.90;;;0.10;;
71655;SDS011;59497;48.798;8.816;2023-12-22T01:47:53;2.60;;;0.20;;
71655;SDS011;59497;48.798;8.816;2023-12-22T01:50:19;3.00;;;0.60;;
71655;SDS011;59497;48.798;8.816;2023-12-22T01:52:45;1.25;;;0.28;;
71655;SDS011;59497;48.798;8.816;2023-12-22T01:55:10;0.87;;;0.37;;
71655;SDS011;59497;48.798;8.816;2023-12-22T01:57:37;1.33;;;0.28;;
71655;SDS011;59497;48.798;8.816;2023-12-22T02:00:03;2.67;;;0.50;;
71655;SDS011;59497;48.798;8.816;2023-12-22T02:02:29;1.90;;;0.30;;
71655;SDS011;59497;48.798;8.816;2023-12-22T02:04:54;1.67;;;0.30;;
71655;SDS011;59497;48.798;8.816;2023-12-22T02:07:19;2.57;;;0.40;;
71655;SDS011;59497;48.798;8.816;2023-12-22T02:09:45;2.17;;;0.37;;
71655;SDS011;59497;48.798;8.816;2023-12-22T02:12:10;2.00;;;0.70;;
71655;SDS011;59497;48.798;8.816;2023-12-22T02:14:35;1.00;;;0.30;;
71655;SDS011;59497;48.798;8.816;2023-12-22T02:19:40;4.93;;;0.60;;
71655;SDS011;59497;48.798;8.816;2023-12-22T02:22:07;2.55;;;0.80;;
71655;SDS011;59497;48.798;8.816;2023-12-22T02:24:33;2.37;;;0.50;;
71655;SDS011;59497;48.798;8.816;2023-12-22T02:27:05;3.10;;;0.50;;
71655;SDS011;59497;48.798;8.816;2023-12-22T02:29:37;2.40;;;0.60;;
71655;SDS011;59497;48.798;8.816;2023-12-22T02:32:05;1.50;;;0.68;;
71655;SDS011;59497;48.798;8.816;2023-12-22T02:34:32;3.78;;;0.68;;
71655;SDS011;59497;48.798;8.816;2023-12-22T02:37:00;1.85;;;0.30;;
71655;SDS011;59497;48.798;8.816;2023-12-22T02:39:26;2.57;;;0.73;;
71655;SDS011;59497;48.798;8.816;2023-12-22T02:41:51;1.60;;;0.60;;
71655;SDS011;59497;48.798;8.816;2023-12-22T02:44:16;3.43;;;0.60;;
71655;SDS011;59497;48.798;8.816;2023-12-22T02:46:41;8.93;;;0.82;;
71655;SDS011;59497;48.798;8.816;2023-12-22T02:49:08;1.80;;;0.70;;
71655;SDS011;59497;48.798;8.816;2023-12-22T02:51:33;3.17;;;0.70;;
71655;SDS011;59497;48.798;8.816;2023-12-22T02:53:59;4.03;;;0.63;;
71655;SDS011;59497;48.798;8.816;2023-12-22T02:56:24;2.93;;;0.63;;
71655;SDS011;59497;48.798;8.816;2023-12-22T02:58:49;2.70;;;0.60;;
71655;SDS011;59497;48.798;8.816;2023-12-22T03:01:14;6.47;;;1.20;;
71655;SDS011;59497;48.798;8.816;2023-12-22T03:03:39;2.37;;;0.50;;
71655;SDS011;59497;48.798;8.816;2023-12-22T03:06:05;3.43;;;0.80;;
71655;SDS011;59497;48.798;8.816;2023-12-22T03:08:30;2.73;;;0.47;;
71655;SDS011;59497;48.798;8.816;2023-12-22T03:10:55;6.10;;;0.73;;
71655;SDS011;59497;48.798;8.816;2023-12-22T03:13:20;2.00;;;0.67;;
71655;SDS011;59497;48.798;8.816;2023-12-22T03:15:46;2.67;;;0.30;;
71655;SDS011;59497;48.798;8.816;2023-12-22T03:18:12;3.50;;;0.65;;
71655;SDS011;59497;48.798;8.816;2023-12-22T03:20:37;1.83;;;0.50;;
71655;SDS011;59497;48.798;8.816;2023-12-22T03:23:03;4.33;;;0.37;;
71655;SDS011;59497;48.798;8.816;2023-12-22T03:25:28;1.30;;;0.30;;
71655;SDS011;59497;48.798;8.816;2023-12-22T03:27:53;2.80;;;0.60;;
71655;SDS011;59497;48.798;8.816;2023-12-22T03:30:19;1.50;;;0.63;;
71655;SDS011;59497;48.798;8.816;2023-12-22T03:32:44;3.07;;;0.47;;
71655;SDS011;59497;48.798;8.816;2023-12-22T03:35:09;2.97;;;0.40;;
71655;SDS011;59497;48.798;8.816;2023-12-22T03:37:34;2.40;;;0.97;;
71655;SDS011;59497;48.798;8.816;2023-12-22T03:40:00;2.97;;;0.47;;
71655;SDS011;59497;48.798;8.816;2023-12-22T03:42:25;3.70;;;0.47;;
71655;SDS011;59497;48.798;8.816;2023-12-22T03:44:50;3.57;;;0.40;;
71655;SDS011;59497;48.798;8.816;2023-12-22T03:47:16;3.03;;;0.60;;
71655;SDS011;59497;48.798;8.816;2023-12-22T03:49:41;8.40;;;0.73;;
71655;SDS011;59497;48.798;8.816;2023-12-22T03:52:06;2.33;;;0.50;;
71655;SDS011;59497;48.798;8.816;2023-12-22T03:54:31;4.50;;;0.77;;
71655;SDS011;59497;48.798;8.816;2023-12-22T03:56:56;2.33;;;0.43;;
71655;SDS011;59497;48.798;8.816;2023-12-22T03:59:22;3.00;;;0.53;;
71655;SDS011;59497;48.798;8.816;2023-12-22T04:01:50;5.57;;;0.73;;
71655;SDS011;59497;48.798;8.816;2023-12-22T04:04:17;4.40;;;0.52;;
71655;SDS011;59497;48.798;8.816;2023-12-22T04:06:42;3.47;;;0.43;;
71655;SDS011;59497;48.798;8.816;2023-12-22T04:09:07;3.23;;;0.70;;
71655;SDS011;59497;48.798;8.816;2023-12-22T04:11:32;6.67;;;1.03;;
71655;SDS011;59497;48.798;8.816;2023-12-22T04:13:59;5.93;;;0.45;;
71655;SDS011;59497;48.798;8.816;2023-12-22T04:16:25;4.17;;;1.00;;
71655;SDS011;59497;48.798;8.816;2023-12-22T04:18:50;2.63;;;0.90;;
71655;SDS011;59497;48.798;8.816;2023-12-22T04:21:15;4.10;;;0.53;;
71655;SDS011;59497;48.798;8.816;2023-12-22T04:23:41;3.20;;;0.40;;
71655;SDS011;59497;48.798;8.816;2023-12-22T04:26:06;2.63;;;0.20;;
71655;SDS011;59497;48.798;8.816;2023-12-22T04:28:31;2.93;;;0.23;;
71655;SDS011;59497;48.798;8.816;2023-12-22T04:30:56;1.70;;;0.50;;
71655;SDS011;59497;48.798;8.816;2023-12-22T04:33:22;1.83;;;0.47;;
71655;SDS011;59497;48.798;8.816;2023-12-22T04:35:47;6.17;;;0.47;;
71655;SDS011;59497;48.798;8.816;2023-12-22T04:38:12;4.03;;;0.53;;
71655;SDS011;59497;48.798;8.816;2023-12-22T04:40:37;3.53;;;1.03;;
71655;SDS011;59497;48.798;8.816;2023-12-22T04:43:03;5.07;;;0.47;;
71655;SDS011;59497;48.798;8.816;2023-12-22T04:45:28;1.00;;;0.20;;
71655;SDS011;59497;48.798;8.816;2023-12-22T04:47:53;2.40;;;0.50;;
71655;SDS011;59497;48.798;8.816;2023-12-22T04:50:18;3.30;;;0.30;;
71655;SDS011;59497;48.798;8.816;2023-12-22T04:52:44;2.23;;;0.50;;
71655;SDS011;59497;48.798;8.816;2023-12-22T04:55:09;2.23;;;0.60;;
71655;SDS011;59497;48.798;8.816;2023-12-22T04:57:34;4.13;;;0.27;;
71655;SDS011;59497;48.798;8.816;2023-12-22T04:59:59;4.97;;;0.67;;
71655;SDS011;59497;48.798;8.816;2023-12-22T05:02:24;5.80;;;0.80;;
71655;SDS011;59497;48.798;8.816;2023-12-22T05:04:50;5.27;;;0.83;;
71655;SDS011;59497;48.798;8.816;2023-12-22T05:07:15;3.77;;;0.67;;
71655;SDS011;59497;48.798;8.816;2023-12-22T05:09:41;2.60;;;0.70;;
71655;SDS011;59497;48.798;8.816;2023-12-22T05:12:06;3.40;;;0.82;;
71655;SDS011;59497;48.798;8.816;2023-12-22T05:14:32;4.00;;;0.60;;
71655;SDS011;59497;48.798;8.816;2023-12-22T05:16:57;3.53;;;0.73;;
71655;SDS011;59497;48.798;8.816;2023-12-22T05:19:22;5.37;;;0.90;;
71655;SDS011;59497;48.798;8.816;2023-12-22T05:21:47;5.03;;;1.00;;
71655;SDS011;59497;48.798;8.816;2023-12-22T05:24:14;7.13;;;1.35;;
71655;SDS011;59497;48.798;8.816;2023-12-22T05:26:39;7.33;;;1.80;;
71655;SDS011;59497;48.798;8.816;2023-12-22T05:29:04;3.70;;;0.63;;
71655;SDS011;59497;48.798;8.816;2023-12-22T05:31:30;7.63;;;1.00;;
71655;SDS011;59497;48.798;8.816;2023-12-22T05:33:57;3.83;;;0.90;;
71655;SDS011;59497;48.798;8.816;2023-12-22T05:36:23;7.13;;;1.47;;
71655;SDS011;59497;48.798;8.816;2023-12-22T05:38:50;7.68;;;1.45;;
71655;SDS011;59497;48.798;8.816;2023-12-22T05:41:15;8.63;;;1.53;;
71655;SDS011;59497;48.798;8.816;2023-12-22T05:43:40;8.70;;;1.60;;
71655;SDS011;59497;48.798;8.816;2023-12-22T05:46:05;15.97;;;2.67;;
71655;SDS011;59497;48.798;8.816;2023-12-22T05:48:30;3.37;;;1.03;;
71655;SDS011;59497;48.798;8.816;2023-12-22T05:50:56;5.53;;;0.80;;
71655;SDS011;59497;48.798;8.816;2023-12-22T05:53:21;3.90;;;0.52;;
71655;SDS011;59497;48.798;8.816;2023-12-22T05:55:47;2.67;;;0.50;;
71655;SDS011;59497;48.798;8.816;2023-12-22T05:58:12;3.27;;;0.80;;
71655;SDS011;59497;48.798;8.816;2023-12-22T06:00:37;4.27;;;1.53;;
71655;SDS011;59497;48.798;8.816;2023-12-22T06:03:02;7.20;;;1.13;;
71655;SDS011;59497;48.798;8.816;2023-12-22T06:05:28;7.87;;;1.53;;
71655;SDS011;59497;48.798;8.816;2023-12-22T06:07:53;5.20;;;1.23;;
71655;SDS011;59497;48.798;8.816;2023-12-22T06:10:18;4.03;;;1.20;;
71655;SDS011;59497;48.798;8.816;2023-12-22T06:12:44;6.00;;;1.00;;
71655;SDS011;59497;48.798;8.816;2023-12-22T06:15:09;6.77;;;1.10;;
71655;SDS011;59497;48.798;8.816;2023-12-22T06:17:34;6.15;;;0.65;;
71655;SDS011;59497;48.798;8.816;2023-12-22T06:19:59;3.47;;;0.63;;
71655;SDS011;59497;48.798;8.816;2023-12-22T06:22:25;6.90;;;0.70;;
71655;SDS011;59497;48.798;8.816;2023-12-22T06:24:50;6.27;;;0.80;;
71655;SDS011;59497;48.798;8.816;2023-12-22T06:27:15;4.13;;;0.57;;
71655;SDS011;59497;48.798;8.816;2023-12-22T06:29:40;6.00;;;0.60;;
71655;SDS011;59497;48.798;8.816;2023-12-22T06:32:06;4.23;;;1.03;;
71655;SDS011;59497;48.798;8.816;2023-12-22T06:34:31;5.47;;;1.00;;
71655;SDS011;59497;48.798;8.816;2023-12-22T06:36:57;5.00;;;1.03;;
71655;SDS011;59497;48.798;8.816;2023-12-22T06:39:22;7.57;;;0.93;;
71655;SDS011;59497;48.798;8.816;2023-12-22T06:41:47;2.27;;;0.63;;
71655;SDS011;59497;48.798;8.816;2023-12-22T06:44:12;4.60;;;1.37;;
71655;SDS011;59497;48.798;8.816;2023-12-22T06:46:37;8.00;;;1.00;;
71655;SDS011;59497;48.798;8.816;2023-12-22T06:49:03;5.57;;;1.10;;
71655;SDS011;59497;48.798;8.816;2023-12-22T06:51:29;3.73;;;0.90;;
71655;SDS011;59497;48.798;8.816;2023-12-22T06:54:01;8.93;;;1.15;;
71655;SDS011;59497;48.798;8.816;2023-12-22T06:56:27;9.45;;;1.80;;
71655;SDS011;59497;48.798;8.816;2023-12-22T06:58:53;5.25;;;0.98;;
71655;SDS011;59497;48.798;8.816;2023-12-22T07:01:19;5.47;;;0.93;;
71655;SDS011;59497;48.798;8.816;2023-12-22T07:03:45;5.38;;;0.98;;
71655;SDS011;59497;48.798;8.816;2023-12-22T07:06:10;6.17;;;0.87;;
71655;SDS011;59497;48.798;8.816;2023-12-22T07:08:36;5.88;;;0.60;;
71655;SDS011;59497;48.798;8.816;2023-12-22T07:11:01;3.67;;;1.20;;
71655;SDS011;59497;48.798;8.816;2023-12-22T07:13:26;6.60;;;0.83;;
71655;SDS011;59497;48.798;8.816;2023-12-22T07:15:52;4.73;;;1.03;;
71655;SDS011;59497;48.798;8.816;2023-12-22T07:18:17;8.47;;;0.67;;
71655;SDS011;59497;48.798;8.816;2023-12-22T07:20:42;7.33;;;1.10;;
71655;SDS011;59497;48.798;8.816;2023-12-22T07:23:09;8.10;;;1.43;;
71655;SDS011;59497;48.798;8.816;2023-12-22T07:25:36;4.82;;;0.68;;
71655;SDS011;59497;48.798;8.816;2023-12-22T07:28:01;6.20;;;0.88;;
71655;SDS011;59497;48.798;8.816;2023-12-22T07:30:26;8.20;;;1.37;;
71655;SDS011;59497;48.798;8.816;2023-12-22T07:32:51;6.37;;;0.80;;
71655;SDS011;59497;48.798;8.816;2023-12-22T07:35:17;4.23;;;0.93;;
71655;SDS011;59497;48.798;8.816;2023-12-22T07:37:42;6.10;;;1.07;;
71655;SDS011;59497;48.798;8.816;2023-12-22T07:40:08;6.17;;;1.07;;
71655;SDS011;59497;48.798;8.816;2023-12-22T07:42:33;5.73;;;0.77;;
71655;SDS011;59497;48.798;8.816;2023-12-22T07:44:59;3.43;;;0.50;;
71655;SDS011;59497;48.798;8.816;2023-12-22T07:47:24;5.17;;;0.70;;
71655;SDS011;59497;48.798;8.816;2023-12-22T07:49:49;3.80;;;0.37;;
71655;SDS011;59497;48.798;8.816;2023-12-22T07:52:15;5.67;;;0.67;;
71655;SDS011;59497;48.798;8.816;2023-12-22T07:54:40;3.55;;;0.68;;
71655;SDS011;59497;48.798;8.816;2023-12-22T07:57:05;5.80;;;0.93;;
71655;SDS011;59497;48.798;8.816;2023-12-22T07:59:30;5.50;;;0.90;;
71655;SDS011;59497;48.798;8.816;2023-12-22T08:01:56;10.00;;;1.30;;
71655;SDS011;59497;48.798;8.816;2023-12-22T08:04:21;10.57;;;1.23;;
71655;SDS011;59497;48.798;8.816;2023-12-22T08:06:46;6.80;;;1.40;;
71655;SDS011;59497;48.798;8.816;2023-12-22T08:09:11;6.03;;;0.93;;
71655;SDS011;59497;48.798;8.816;2023-12-22T08:11:37;6.80;;;1.70;;
71655;SDS011;59497;48.798;8.816;2023-12-22T08:14:02;12.43;;;2.00;;
71655;SDS011;59497;48.798;8.816;2023-12-22T08:16:28;6.03;;;1.50;;
71655;SDS011;59497;48.798;8.816;2023-12-22T08:18:53;10.93;;;1.40;;
71655;SDS011;59497;48.798;8.816;2023-12-22T08:21:18;12.03;;;1.73;;
71655;SDS011;59497;48.798;8.816;2023-12-22T08:23:43;6.43;;;1.27;;
71655;SDS011;59497;48.798;8.816;2023-12-22T08:26:09;5.07;;;1.00;;
71655;SDS011;59497;48.798;8.816;2023-12-22T08:28:34;8.03;;;1.27;;
71655;SDS011;59497;48.798;8.816;2023-12-22T08:30:59;11.83;;;1.53;;
71655;SDS011;59497;48.798;8.816;2023-12-22T08:33:24;7.40;;;1.80;;
71655;SDS011;59497;48.798;8.816;2023-12-22T08:35:50;8.30;;;1.90;;
71655;SDS011;59497;48.798;8.816;2023-12-22T08:38:15;8.77;;;1.20;;
71655;SDS011;59497;48.798;8.816;2023-12-22T08:40:40;6.57;;;1.30;;
71655;SDS011;59497;48.798;8.816;2023-12-22T08:43:06;6.73;;;0.50;;
71655;SDS011;59497;48.798;8.816;2023-12-22T08:45:31;9.73;;;0.63;;
71655;SDS011;59497;48.798;8.816;2023-12-22T08:47:57;8.23;;;1.40;;
71655;SDS011;59497;48.798;8.816;2023-12-22T08:50:22;6.60;;;1.10;;
71655;SDS011;59497;48.798;8.816;2023-12-22T08:52:47;15.03;;;2.07;;
71655;SDS011;59497;48.798;8.816;2023-12-22T08:55:12;9.33;;;1.20;;
71655;SDS011;59497;48.798;8.816;2023-12-22T08:57:39;6.63;;;1.03;;
71655;SDS011;59497;48.798;8.816;2023-12-22T09:00:04;12.25;;;1.50;;
71655;SDS011;59497;48.798;8.816;2023-12-22T09:02:30;5.67;;;1.07;;
71655;SDS011;59497;48.798;8.816;2023-12-22T09:04:55;6.67;;;0.90;;
71655;SDS011;59497;48.798;8.816;2023-12-22T09:07:20;10.87;;;1.43;;
71655;SDS011;59497;48.798;8.816;2023-12-22T09:09:47;8.07;;;1.13;;
71655;SDS011;59497;48.798;8.816;2023-12-22T09:12:12;7.07;;;1.33;;
71655;SDS011;59497;48.798;8.816;2023-12-22T09:14:38;11.30;;;1.47;;
71655;SDS011;59497;48.798;8.816;2023-12-22T09:17:03;11.87;;;1.33;;
71655;SDS011;59497;48.798;8.816;2023-12-22T09:19:28;8.93;;;1.77;;
71655;SDS011;59497;48.798;8.816;2023-12-22T09:21:53;11.63;;;1.92;;
71655;SDS011;59497;48.798;8.816;2023-12-22T09:24:19;7.70;;;1.23;;
71655;SDS011;59497;48.798;8.816;2023-12-22T09:26:44;8.07;;;1.07;;
71655;SDS011;59497;48.798;8.816;2023-12-22T09:29:09;9.70;;;1.60;;
71655;SDS011;59497;48.798;8.816;2023-12-22T09:31:34;10.07;;;1.53;;
71655;SDS011;59497;48.798;8.816;2023-12-22T09:33:59;11.13;;;1.30;;
71655;SDS011;59497;48.798;8.816;2023-12-22T09:36:25;8.37;;;1.90;;
71655;SDS011;59497;48.798;8.816;2023-12-22T09:38:50;10.00;;;1.67;;
71655;SDS011;59497;48.798;8.816;2023-12-22T09:41:15;12.23;;;1.70;;
71655;SDS011;59497;48.798;8.816;2023-12-22T09:43:40;9.73;;;1.70;;
71655;SDS011;59497;48.798;8.816;2023-12-22T09:46:07;5.95;;;1.05;;
71655;SDS011;59497;48.798;8.816;2023-12-22T09:48:32;8.07;;;1.40;;
71655;SDS011;59497;48.798;8.816;2023-12-22T09:50:58;8.57;;;1.20;;
71655;SDS011;59497;48.798;8.816;2023-12-22T09:53:25;8.63;;;1.38;;
71655;SDS011;59497;48.798;8.816;2023-12-22T09:55:51;12.57;;;1.85;;
71655;SDS011;59497;48.798;8.816;2023-12-22T09:58:17;8.32;;;1.23;;
71655;SDS011;59497;48.798;8.816;2023-12-22T10:00:43;9.07;;;1.70;;
71655;SDS011;59497;48.798;8.816;2023-12-22T10:03:09;9.17;;;1.27;;
71655;SDS011;59497;48.798;8.816;2023-12-22T10:05:35;8.05;;;1.23;;
71655;SDS011;59497;48.798;8.816;2023-12-22T10:08:00;8.53;;;0.73;;
71655;SDS011;59497;48.798;8.816;2023-12-22T10:10:29;7.10;;;1.75;;
71655;SDS011;59497;48.798;8.816;2023-12-22T10:12:55;11.77;;;1.50;;
71655;SDS011;59497;48.798;8.816;2023-12-22T10:15:21;5.65;;;1.55;;
71655;SDS011;59497;48.798;8.816;2023-12-22T10:17:49;6.25;;;1.10;;
71655;SDS011;59497;48.798;8.816;2023-12-22T10:20:14;9.50;;;1.97;;
71655;SDS011;59497;48.798;8.816;2023-12-22T10:22:40;10.20;;;1.63;;
71655;SDS011;59497;48.798;8.816;2023-12-22T10:25:05;11.20;;;1.30;;
71655;SDS011;59497;48.798;8.816;2023-12-22T10:27:31;8.10;;;1.30;;
71655;SDS011;59497;48.798;8.816;2023-12-22T10:29:57;7.00;;;1.10;;
71655;SDS011;59497;48.798;8.816;2023-12-22T10:32:23;4.37;;;0.73;;
71655;SDS011;59497;48.798;8.816;2023-12-22T10:34:50;8.83;;;1.37;;
71655;SDS011;59497;48.798;8.816;2023-12-22T10:37:16;5.60;;;1.30;;
71655;SDS011;59497;48.798;8.816;2023-12-22T10:39:41;7.67;;;1.33;;
71655;SDS011;59497;48.798;8.816;2023-12-22T10:42:06;4.50;;;0.80;;
71655;SDS011;59497;48.798;8.816;2023-12-22T10:44:32;7.07;;;1.15;;
71655;SDS011;59497;48.798;8.816;2023-12-22T10:46:57;4.90;;;0.83;;
71655;SDS011;59497;48.798;8.816;2023-12-22T10:49:23;5.37;;;0.70;;
71655;SDS011;59497;48.798;8.816;2023-12-22T10:51:48;3.80;;;1.10;;
71655;SDS011;59497;48.798;8.816;2023-12-22T10:54:14;4.50;;;0.65;;
71655;SDS011;59497;48.798;8.816;2023-12-22T10:56:39;7.37;;;1.27;;
71655;SDS011;59497;48.798;8.816;2023-12-22T10:59:05;6.07;;;1.77;;
71655;SDS011;59497;48.798;8.816;2023-12-22T11:01:31;5.00;;;0.90;;
71655;SDS011;59497;48.798;8.816;2023-12-22T11:04:01;6.32;;;1.17;;
71655;SDS011;59497;48.798;8.816;2023-12-22T11:06:27;2.78;;;0.90;;
71655;SDS011;59497;48.798;8.816;2023-12-22T11:08:52;2.37;;;0.67;;
71655;SDS011;59497;48.798;8.816;2023-12-22T11:11:27;2.47;;;0.80;;
71655;SDS011;59497;48.798;8.816;2023-12-22T11:13:56;3.95;;;0.70;;
71655;SDS011;59497;48.798;8.816;2023-12-22T11:16:21;4.50;;;0.70;;
71655;SDS011;59497;48.798;8.816;2023-12-22T11:18:48;1.80;;;0.67;;
71655;SDS011;59497;48.798;8.816;2023-12-22T11:21:13;3.43;;;0.87;;
71655;SDS011;59497;48.798;8.816;2023-12-22T11:23:39;1.20;;;0.70;;
71655;SDS011;59497;48.798;8.816;2023-12-22T11:26:04;4.00;;;0.73;;
71655;SDS011;59497;48.798;8.816;2023-12-22T11:28:31;2.13;;;0.80;;
71655;SDS011;59497;48.798;8.816;2023-12-22T11:30:57;2.40;;;1.23;;
71655;SDS011;59497;48.798;8.816;2023-12-22T11:33:23;2.88;;;0.70;;
71655;SDS011;59497;48.798;8.816;2023-12-22T11:35:50;3.08;;;0.45;;
71655;SDS011;59497;48.798;8.816;2023-12-22T11:38:18;1.40;;;0.43;;
71655;SDS011;59497;48.798;8.816;2023-12-22T11:40:43;2.22;;;0.35;;
71655;SDS011;59497;48.798;8.816;2023-12-22T11:43:09;2.30;;;0.53;;
71655;SDS011;59497;48.798;8.816;2023-12-22T11:45:35;2.83;;;0.30;;
71655;SDS011;59497;48.798;8.816;2023-12-22T11:48:06;1.93;;;0.73;;
71655;SDS011;59497;48.798;8.816;2023-12-22T11:50:32;4.38;;;0.30;;
71655;SDS011;59497;48.798;8.816;2023-12-22T11:53:17;2.43;;;0.53;;
71655;SDS011;59497;48.798;8.816;2023-12-22T11:56:01;2.83;;;0.50;;
71655;SDS011;59497;48.798;8.816;2023-12-22T11:58:42;1.67;;;0.73;;
71655;SDS011;59497;48.798;8.816;2023-12-22T12:03:35;1.57;;;0.43;;
71655;SDS011;59497;48.798;8.816;2023-12-22T12:08:35;1.02;;;0.50;;
71655;SDS011;59497;48.798;8.816;2023-12-22T12:11:00;1.07;;;0.40;;
71655;SDS011;59497;48.798;8.816;2023-12-22T12:13:28;0.88;;;0.35;;
71655;SDS011;59497;48.798;8.816;2023-12-22T12:15:55;1.08;;;0.40;;
71655;SDS011;59497;48.798;8.816;2023-12-22T12:18:23;1.50;;;0.40;;
71655;SDS011;59497;48.798;8.816;2023-12-22T12:20:49;0.70;;;0.52;;
71655;SDS011;59497;48.798;8.816;2023-12-22T12:23:17;1.47;;;0.73;;
71655;SDS011;59497;48.798;8.816;2023-12-22T12:25:42;1.40;;;0.88;;
71655;SDS011;59497;48.798;8.816;2023-12-22T12:28:08;1.07;;;0.40;;
71655;SDS011;59497;48.798;8.816;2023-12-22T12:30:34;0.95;;;0.50;;
71655;SDS011;59497;48.798;8.816;2023-12-22T12:33:06;0.30;;;0.20;;
71655;SDS011;59497;48.798;8.816;2023-12-22T12:35:32;0.77;;;0.22;;
71655;SDS011;59497;48.798;8.816;2023-12-22T12:37:58;0.20;;;0.13;;
71655;SDS011;59497;48.798;8.816;2023-12-22T12:40:23;1.07;;;0.30;;
71655;SDS011;59497;48.798;8.816;2023-12-22T12:42:49;1.33;;;0.22;;
71655;SDS011;59497;48.798;8.816;2023-12-22T12:45:15;0.53;;;0.10;;
71655;SDS011;59497;48.798;8.816;2023-12-22T12:47:40;1.53;;;0.40;;
71655;SDS011;59497;48.798;8.816;2023-12-22T12:50:05;0.73;;;0.50;;
71655;SDS011;59497;48.798;8.816;2023-12-22T12:52:30;0.88;;;0.20;;
71655;SDS011;59497;48.798;8.816;2023-12-22T12:54:56;0.30;;;0.20;;
71655;SDS011;59497;48.798;8.816;2023-12-22T12:57:23;0.57;;;0.25;;
71655;SDS011;59497;48.798;8.816;2023-12-22T12:59:49;0.50;;;0.27;;
71655;SDS011;59497;48.798;8.816;2023-12-22T13:02:17;0.20;;;0.20;;
71655;SDS011;59497;48.798;8.816;2023-12-22T13:04:42;0.55;;;0.38;;
71655;SDS011;59497;48.798;8.816;2023-12-22T13:07:08;0.20;;;0.13;;
71655;SDS011;59497;48.798;8.816;2023-12-22T13:09:35;0.40;;;0.30;;
71655;SDS011;59497;48.798;8.816;2023-12-22T13:12:00;0.47;;;0.20;;
71655;SDS011;59497;48.798;8.816;2023-12-22T13:14:25;0.30;;;0.30;;
71655;SDS011;59497;48.798;8.816;2023-12-22T13:16:52;0.40;;;0.30;;
71655;SDS011;59497;48.798;8.816;2023-12-22T13:19:20;0.40;;;0.30;;
71655;SDS011;59497;48.798;8.816;2023-12-22T13:21:45;0.50;;;0.20;;
71655;SDS011;59497;48.798;8.816;2023-12-22T13:24:17;0.30;;;0.30;;
71655;SDS011;59497;48.798;8.816;2023-12-22T13:26:42;0.40;;;0.40;;
71655;SDS011;59497;48.798;8.816;2023-12-22T13:29:08;0.30;;;0.30;;
71655;SDS011;59497;48.798;8.816;2023-12-22T13:31:35;0.40;;;0.15;;
71655;SDS011;59497;48.798;8.816;2023-12-22T13:34:01;0.63;;;0.27;;
71655;SDS011;59497;48.798;8.816;2023-12-22T13:36:26;0.90;;;0.28;;
71655;SDS011;59497;48.798;8.816;2023-12-22T13:38:52;0.40;;;0.30;;
71655;SDS011;59497;48.798;8.816;2023-12-22T13:41:17;0.20;;;0.20;;
71655;SDS011;59497;48.798;8.816;2023-12-22T13:43:42;1.07;;;0.40;;
71655;SDS011;59497;48.798;8.816;2023-12-22T13:46:12;0.20;;;0.17;;
71655;SDS011;59497;48.798;8.816;2023-12-22T13:48:37;1.50;;;0.20;;
71655;SDS011;59497;48.798;8.816;2023-12-22T13:51:02;0.70;;;0.30;;
71655;SDS011;59497;48.798;8.816;2023-12-22T13:53:28;0.35;;;0.20;;
71655;SDS011;59497;48.798;8.816;2023-12-22T13:55:57;0.67;;;0.20;;
71655;SDS011;59497;48.798;8.816;2023-12-22T13:58:22;0.70;;;0.50;;
71655;SDS011;59497;48.798;8.816;2023-12-22T14:00:48;0.90;;;0.60;;
71655;SDS011;59497;48.798;8.816;2023-12-22T14:03:13;0.30;;;0.27;;
71655;SDS011;59497;48.798;8.816;2023-12-22T14:05:41;0.50;;;0.20;;
71655;SDS011;59497;48.798;8.816;2023-12-22T14:08:06;0.70;;;0.60;;
71655;SDS011;59497;48.798;8.816;2023-12-22T14:10:31;0.60;;;0.60;;
71655;SDS011;59497;48.798;8.816;2023-12-22T14:12:57;0.37;;;0.30;;
71655;SDS011;59497;48.798;8.816;2023-12-22T14:15:22;2.03;;;0.50;;
71655;SDS011;59497;48.798;8.816;2023-12-22T14:17:48;0.77;;;0.20;;
71655;SDS011;59497;48.798;8.816;2023-12-22T14:20:13;0.73;;;0.70;;
71655;SDS011;59497;48.798;8.816;2023-12-22T14:22:39;0.30;;;0.30;;
71655;SDS011;59497;48.798;8.816;2023-12-22T14:25:04;1.40;;;0.60;;
71655;SDS011;59497;48.798;8.816;2023-12-22T14:27:30;0.20;;;0.13;;
71655;SDS011;59497;48.798;8.816;2023-12-22T14:29:55;0.47;;;0.47;;
71655;SDS011;59497;48.798;8.816;2023-12-22T14:32:21;1.00;;;0.50;;
71655;SDS011;59497;48.798;8.816;2023-12-22T14:34:46;0.63;;;0.63;;
71655;SDS011;59497;48.798;8.816;2023-12-22T14:37:11;1.13;;;0.70;;
71655;SDS011;59497;48.798;8.816;2023-12-22T14:39:37;0.77;;;0.47;;
71655;SDS011;59497;48.798;8.816;2023-12-22T14:42:02;1.47;;;1.30;;
71655;SDS011;59497;48.798;8.816;2023-12-22T14:44:30;1.00;;;0.70;;
71655;SDS011;59497;48.798;8.816;2023-12-22T14:46:55;2.50;;;1.35;;